createdAt,value
2023-04-06T00:00:34.787Z,79.33
2023-04-06T00:03:04.772Z,79.69
2023-04-06T00:05:33.396Z,79.51
2023-04-06T00:08:01.830Z,79.45
2023-04-06T00:10:30.914Z,79.26
2023-04-06T00:13:00.510Z,79.12
2023-04-06T00:15:29.059Z,79.43
2023-04-06T00:17:57.369Z,79.44
2023-04-06T00:20:25.849Z,79.65
2023-04-06T00:22:55.252Z,79.50
2023-04-06T00:25:23.508Z,79.54
2023-04-06T00:27:51.917Z,79.58
2023-04-06T00:30:19.991Z,79.68
2023-04-06T00:32:49.221Z,79.53
2023-04-06T00:35:17.334Z,79.67
2023-04-06T00:37:47.478Z,79.76
2023-04-06T00:40:16.452Z,79.80
2023-04-06T00:42:44.797Z,79.98
2023-04-06T00:45:12.865Z,79.80
2023-04-06T00:47:41.036Z,79.88
2023-04-06T00:50:09.373Z,79.88
2023-04-06T00:52:37.610Z,79.66
2023-04-06T00:55:07.103Z,79.94
2023-04-06T00:57:38.438Z,80.37
2023-04-06T01:00:08.358Z,80.35
2023-04-06T01:02:38.635Z,80.43
2023-04-06T01:05:08.200Z,80.22
2023-04-06T01:07:51.468Z,80.21
2023-04-06T01:10:24.675Z,80.33
2023-04-06T01:12:53.773Z,80.27
2023-04-06T01:15:36.413Z,80.36
2023-04-06T01:18:05.968Z,80.43
2023-04-06T01:20:34.036Z,80.59
2023-04-06T01:23:03.218Z,80.63
2023-04-06T01:25:32.543Z,80.60
2023-04-06T01:28:09.613Z,80.59
2023-04-06T01:31:03.275Z,80.74
2023-04-06T01:33:46.963Z,80.85
2023-04-06T01:36:18.732Z,80.85
2023-04-06T01:38:49.193Z,80.56
2023-04-06T01:41:18.195Z,80.68
2023-04-06T01:43:50.503Z,80.57
2023-04-06T01:46:18.560Z,80.62
2023-04-06T01:48:50.081Z,80.97
2023-04-06T01:51:36.754Z,80.90
2023-04-06T01:54:07.628Z,81.14
2023-04-06T01:56:44.404Z,81.24
2023-04-06T01:59:25.816Z,81.12
2023-04-06T02:01:54.929Z,80.91
2023-04-06T02:04:24.843Z,80.94
2023-04-06T02:06:58.677Z,80.88
2023-04-06T02:09:27.252Z,80.81
2023-04-06T02:11:56.799Z,80.81
2023-04-06T02:14:26.545Z,80.94
2023-04-06T02:16:56.971Z,80.89
2023-04-06T02:19:25.409Z,80.91
2023-04-06T02:21:57.703Z,80.81
2023-04-06T02:24:26.838Z,81.03
2023-04-06T02:26:55.984Z,81.09
2023-04-06T02:29:26.673Z,80.89
2023-04-06T02:31:55.293Z,81.01
2023-04-06T02:34:23.363Z,81.12
2023-04-06T02:36:53.504Z,81.22
2023-04-06T02:39:21.665Z,80.92
2023-04-06T02:41:49.802Z,81.04
2023-04-06T02:44:20.939Z,80.93
2023-04-06T02:46:49.326Z,81.03
2023-04-06T02:49:17.352Z,81.10
2023-04-06T02:51:45.968Z,81.30
2023-04-06T02:54:21.299Z,81.03
2023-04-06T02:56:49.278Z,80.89
2023-04-06T02:59:18.669Z,80.82
2023-04-06T03:01:57.398Z,80.79
2023-04-06T03:04:26.636Z,80.83
2023-04-06T03:06:55.322Z,80.72
2023-04-06T03:09:38.362Z,80.66
2023-04-06T03:12:08.463Z,80.41
2023-04-06T03:14:47.407Z,80.32
2023-04-06T03:17:15.924Z,80.10
2023-04-06T03:19:44.651Z,80.10
2023-04-06T03:22:13.011Z,80.00
2023-04-06T03:24:44.909Z,79.98
2023-04-06T03:27:13.254Z,80.29
2023-04-06T03:29:42.032Z,80.44
2023-04-06T03:32:11.823Z,80.23
2023-04-06T03:34:43.206Z,80.45
2023-04-06T03:37:13.326Z,80.28
2023-04-06T03:39:46.836Z,80.35
2023-04-06T03:42:18.927Z,80.15
2023-04-06T03:44:53.736Z,80.27
2023-04-06T03:47:23.721Z,80.09
2023-04-06T03:49:57.439Z,80.05
2023-04-06T03:52:27.317Z,79.88
2023-04-06T03:54:55.504Z,80.29
2023-04-06T03:57:23.457Z,80.48
2023-04-06T03:59:58.683Z,80.89
2023-04-06T04:02:28.111Z,81.46
2023-04-06T04:04:56.744Z,81.27
2023-04-06T04:07:33.187Z,81.40
2023-04-06T04:10:02.805Z,81.23
2023-04-06T04:12:31.704Z,81.15
2023-04-06T04:15:01.195Z,81.12
2023-04-06T04:17:31.036Z,80.97
2023-04-06T04:19:59.007Z,80.93
2023-04-06T04:22:28.830Z,80.94
2023-04-06T04:24:57.774Z,80.72
2023-04-06T04:27:26.773Z,80.44
2023-04-06T04:30:01.451Z,80.07
2023-04-06T04:32:32.983Z,80.01
2023-04-06T04:35:02.045Z,80.21
2023-04-06T04:37:36.304Z,79.93
2023-04-06T04:40:05.368Z,79.33
2023-04-06T04:42:39.754Z,79.22
2023-04-06T04:45:09.212Z,79.15
2023-04-06T04:47:39.976Z,78.81
2023-04-06T04:50:15.133Z,78.51
2023-04-06T04:52:45.054Z,78.34
2023-04-06T04:55:17.032Z,78.39
2023-04-06T04:57:47.944Z,78.15
2023-04-06T05:00:17.055Z,78.07
2023-04-06T05:02:51.922Z,77.86
2023-04-06T05:07:07.793Z,79.76
2023-04-06T05:09:35.940Z,78.38
2023-04-06T05:12:05.114Z,78.43
2023-04-06T05:14:34.727Z,78.64
2023-04-06T05:17:02.647Z,78.80
2023-04-06T05:19:30.782Z,78.25
2023-04-06T05:21:57.764Z,78.06
2023-04-06T05:24:28.429Z,78.12
2023-04-06T05:26:55.652Z,78.27
2023-04-06T05:29:24.146Z,78.22
2023-04-06T05:31:51.440Z,78.48
2023-04-06T05:34:18.107Z,78.31
2023-04-06T05:36:45.546Z,78.16
2023-04-06T05:39:20.975Z,77.97
2023-04-06T05:41:52.130Z,78.04
2023-04-06T05:44:28.087Z,77.82
2023-04-06T05:47:02.350Z,77.43
2023-04-06T05:49:29.277Z,77.66
2023-04-06T05:51:56.434Z,77.76
2023-04-06T05:54:23.407Z,77.43
2023-04-06T05:56:50.819Z,77.46
2023-04-06T05:59:17.470Z,77.28
2023-04-06T06:01:44.401Z,77.12
2023-04-06T06:04:11.193Z,76.85
2023-04-06T06:06:39.403Z,76.85
2023-04-06T06:09:26.618Z,76.70
2023-04-06T06:12:01.746Z,76.62
2023-04-06T06:14:30.016Z,75.97
2023-04-06T06:16:56.738Z,75.97
2023-04-06T06:19:23.662Z,75.69
2023-04-06T06:21:50.784Z,75.19
2023-04-06T06:24:19.705Z,75.19
2023-04-06T06:26:46.789Z,75.24
2023-04-06T06:29:15.070Z,75.01
2023-04-06T06:31:41.959Z,74.74
2023-04-06T06:34:09.314Z,74.21
2023-04-06T06:36:36.439Z,74.44
2023-04-06T06:39:04.416Z,74.38
2023-04-06T06:41:31.501Z,74.33
2023-04-06T06:43:59.283Z,74.27
2023-04-06T06:46:26.152Z,73.98
2023-04-06T06:48:52.977Z,73.80
2023-04-06T06:51:19.887Z,73.57
2023-04-06T06:53:48.252Z,73.32
2023-04-06T06:56:14.978Z,72.86
2023-04-06T06:58:42.463Z,72.58
2023-04-06T07:01:09.630Z,72.62
2023-04-06T07:03:38.799Z,72.18
2023-04-06T07:06:05.611Z,71.67
2023-04-06T07:08:33.036Z,71.07
2023-04-06T07:10:59.633Z,70.47
2023-04-06T07:13:31.519Z,69.87
2023-04-06T07:15:59.175Z,69.45
2023-04-06T07:18:25.948Z,68.71
2023-04-06T07:20:53.101Z,68.46
2023-04-06T07:23:20.224Z,68.32
2023-04-06T07:25:47.193Z,68.41
2023-04-06T07:28:13.925Z,68.52
2023-04-06T07:30:42.982Z,68.17
2023-04-06T07:33:11.334Z,68.00
2023-04-06T07:35:38.549Z,67.73
2023-04-06T07:38:05.821Z,67.39
2023-04-06T07:40:33.195Z,67.54
2023-04-06T07:43:06.134Z,67.68
2023-04-06T07:45:32.938Z,67.48
2023-04-06T07:48:00.918Z,67.39
2023-04-06T07:50:27.856Z,67.64
2023-04-06T07:52:55.082Z,67.04
2023-04-06T07:55:22.719Z,67.16
2023-04-06T07:57:49.278Z,67.05
2023-04-06T08:00:16.062Z,67.03
2023-04-06T08:02:44.069Z,66.45
2023-04-06T08:05:11.079Z,66.95
2023-04-06T08:07:38.257Z,66.64
2023-04-06T08:10:08.893Z,67.20
2023-04-06T08:12:36.190Z,66.77
2023-04-06T08:15:07.905Z,67.12
2023-04-06T08:17:35.464Z,67.34
2023-04-06T08:20:03.850Z,67.39
2023-04-06T08:22:34.016Z,67.01
2023-04-06T08:25:00.683Z,66.70
2023-04-06T08:27:27.313Z,66.12
2023-04-06T08:29:54.033Z,65.77
2023-04-06T08:32:20.748Z,65.71
2023-04-06T08:34:47.335Z,66.18
2023-04-06T08:37:14.276Z,66.07
2023-04-06T08:39:41.309Z,65.75
2023-04-06T08:42:13.142Z,65.81
2023-04-06T08:44:41.485Z,65.91
2023-04-06T08:47:08.358Z,65.98
2023-04-06T08:49:35.202Z,65.88
2023-04-06T08:52:01.860Z,66.38
2023-04-06T08:54:28.692Z,66.25
2023-04-06T08:56:56.821Z,66.31
2023-04-06T08:59:24.752Z,65.94
2023-04-06T09:01:52.273Z,66.22
2023-04-06T09:04:19.445Z,66.28
2023-04-06T09:06:47.418Z,66.23
2023-04-06T09:09:14.156Z,66.07
2023-04-06T09:11:48.979Z,66.09
2023-04-06T09:14:37.052Z,65.91
2023-04-06T09:17:03.995Z,66.29
2023-04-06T09:19:30.753Z,66.47
2023-04-06T09:22:09.765Z,66.72
2023-04-06T09:24:53.166Z,67.30
2023-04-06T09:27:36.342Z,67.23
2023-04-06T09:30:08.083Z,67.62
2023-04-06T09:32:49.453Z,67.56
2023-04-06T09:35:16.328Z,67.35
2023-04-06T09:37:43.695Z,67.04
2023-04-06T09:40:10.983Z,67.37
2023-04-06T09:42:37.905Z,67.11
2023-04-06T09:45:05.742Z,67.42
2023-04-06T09:47:33.625Z,68.41
2023-04-06T09:50:00.954Z,68.74
2023-04-06T09:52:33.242Z,69.64
2023-04-06T09:55:02.352Z,70.68
2023-04-06T09:57:38.211Z,71.67
2023-04-06T10:00:11.895Z,72.63
2023-04-06T10:02:51.352Z,73.29
2023-04-06T10:05:27.797Z,74.16
2023-04-06T10:08:00.829Z,75.01
2023-04-06T10:10:29.132Z,76.14
2023-04-06T10:12:56.153Z,76.83
2023-04-06T10:15:23.482Z,77.23
2023-04-06T10:17:50.317Z,77.99
2023-04-06T10:20:29.414Z,78.83
2023-04-06T10:23:01.338Z,79.11
2023-04-06T10:25:32.239Z,79.57
2023-04-06T10:28:11.736Z,80.03
2023-04-06T10:30:43.151Z,80.33
2023-04-06T10:33:17.507Z,80.94
2023-04-06T10:35:44.203Z,80.93
2023-04-06T10:38:13.989Z,80.56
2023-04-06T10:40:43.504Z,80.38
2023-04-06T10:43:20.685Z,80.25
2023-04-06T10:45:58.575Z,80.15
2023-04-06T10:48:25.846Z,80.01
2023-04-06T10:50:53.251Z,80.24
2023-04-06T10:53:26.151Z,79.96
2023-04-06T10:55:55.075Z,80.04
2023-04-06T10:58:28.456Z,80.25
2023-04-06T11:00:56.320Z,80.00
2023-04-06T11:03:23.480Z,79.41
2023-04-06T11:05:51.652Z,79.33
2023-04-06T11:08:34.196Z,79.10
2023-04-06T11:11:18.629Z,78.86
2023-04-06T11:13:55.450Z,78.96
2023-04-06T11:16:27.124Z,79.16
2023-04-06T11:19:01.976Z,79.35
2023-04-06T11:21:43.925Z,78.75
2023-04-06T11:24:11.575Z,78.62
2023-04-06T11:26:46.243Z,78.57
2023-04-06T11:29:13.693Z,78.24
2023-04-06T11:31:46.242Z,77.91
2023-04-06T11:34:14.030Z,77.58
2023-04-06T11:36:42.272Z,77.18
2023-04-06T11:39:09.853Z,77.50
2023-04-06T11:41:38.925Z,77.82
2023-04-06T11:44:05.935Z,77.98
2023-04-06T11:46:32.663Z,77.77
2023-04-06T11:49:01.002Z,77.50
2023-04-06T11:51:27.969Z,77.40
2023-04-06T11:53:56.589Z,77.39
2023-04-06T11:56:29.799Z,76.98
2023-04-06T11:58:57.673Z,76.90
2023-04-06T12:01:24.804Z,76.57
2023-04-06T12:03:59.226Z,76.57
2023-04-06T12:06:28.153Z,76.58
2023-04-06T12:08:56.233Z,76.51
2023-04-06T12:11:23.631Z,76.34
2023-04-06T12:13:52.920Z,76.28
2023-04-06T12:16:21.458Z,75.82
2023-04-06T12:18:48.790Z,75.58
2023-04-06T12:21:17.873Z,75.39
2023-04-06T12:23:44.898Z,75.32
2023-04-06T12:26:13.317Z,74.73
2023-04-06T12:28:45.266Z,74.86
2023-04-06T12:31:18.907Z,74.28
2023-04-06T12:33:49.682Z,74.28
2023-04-06T12:36:19.314Z,73.42
2023-04-06T12:38:49.938Z,73.10
2023-04-06T12:41:17.152Z,72.99
2023-04-06T12:43:44.250Z,73.37
2023-04-06T12:46:11.245Z,72.98
2023-04-06T12:48:37.971Z,73.37
2023-04-06T12:51:05.846Z,73.52
2023-04-06T12:53:33.211Z,73.92
2023-04-06T12:56:01.551Z,74.16
2023-04-06T12:58:30.005Z,75.15
2023-04-06T13:00:58.297Z,75.27
2023-04-06T13:03:25.974Z,75.22
2023-04-06T13:05:52.921Z,75.57
2023-04-06T13:08:21.854Z,75.64
2023-04-06T13:10:49.645Z,76.01
2023-04-06T13:13:17.915Z,75.25
2023-04-06T13:15:45.458Z,74.89
2023-04-06T13:18:12.102Z,74.93
2023-04-06T13:20:38.917Z,74.52
2023-04-06T13:23:05.684Z,74.87
2023-04-06T13:25:33.141Z,75.18
2023-04-06T13:28:00.208Z,75.04
2023-04-06T13:30:27.406Z,75.16
2023-04-06T13:32:57.736Z,75.76
2023-04-06T13:35:24.365Z,76.48
2023-04-06T13:37:52.605Z,77.62
2023-04-06T13:40:19.655Z,77.96
2023-04-06T13:42:47.701Z,78.01
2023-04-06T13:45:16.296Z,78.48
2023-04-06T13:47:43.208Z,79.56
2023-04-06T13:50:10.125Z,79.90
2023-04-06T13:52:36.722Z,80.19
2023-04-06T13:55:03.512Z,80.08
2023-04-06T13:57:32.917Z,79.97
2023-04-06T14:00:00.436Z,79.68
2023-04-06T14:02:33.865Z,79.46
2023-04-06T14:05:00.578Z,79.14
2023-04-06T14:07:27.164Z,78.87
2023-04-06T14:09:53.859Z,79.01
2023-04-06T14:12:20.986Z,78.71
2023-04-06T14:14:47.497Z,78.61
2023-04-06T14:17:15.061Z,78.49
2023-04-06T14:19:41.905Z,78.41
2023-04-06T14:22:09.078Z,78.12
2023-04-06T14:24:38.076Z,78.29
2023-04-06T14:27:04.868Z,78.30
2023-04-06T14:29:31.566Z,78.14
2023-04-06T14:32:02.399Z,77.70
2023-04-06T14:34:29.602Z,77.76
2023-04-06T14:36:56.440Z,77.39
2023-04-06T14:39:23.287Z,77.46
2023-04-06T14:41:51.094Z,77.12
2023-04-06T14:44:18.067Z,76.85
2023-04-06T14:46:45.830Z,76.75
2023-04-06T14:49:12.701Z,76.69
2023-04-06T14:51:39.561Z,76.67
2023-04-06T14:54:06.448Z,76.47
2023-04-06T14:56:33.325Z,76.31
2023-04-06T14:59:02.113Z,76.44
2023-04-06T15:01:29.373Z,76.45
2023-04-06T15:03:57.378Z,76.54
2023-04-06T15:06:25.046Z,76.49
2023-04-06T15:08:51.989Z,76.39
2023-04-06T15:11:18.610Z,76.64
2023-04-06T15:13:47.160Z,76.54
2023-04-06T15:16:17.167Z,76.80
2023-04-06T15:18:43.728Z,76.67
2023-04-06T15:21:15.737Z,76.81
2023-04-06T15:23:43.073Z,77.26
2023-04-06T15:26:10.009Z,77.07
2023-04-06T15:28:38.621Z,77.21
2023-04-06T15:31:20.669Z,77.31
2023-04-06T15:33:56.019Z,77.00
2023-04-06T15:36:29.125Z,76.72
2023-04-06T15:38:58.855Z,76.76
2023-04-06T15:41:26.466Z,76.86
2023-04-06T15:43:53.906Z,76.89
2023-04-06T15:46:20.799Z,76.89
2023-04-06T15:48:48.213Z,77.08
2023-04-06T15:51:16.885Z,76.87
2023-04-06T15:53:47.311Z,77.56
2023-04-06T15:56:13.897Z,77.47
2023-04-06T15:58:43.900Z,77.40
2023-04-06T16:01:15.060Z,77.23
2023-04-06T16:03:42.149Z,77.32
2023-04-06T16:06:09.426Z,77.60
2023-04-06T16:08:38.166Z,78.17
2023-04-06T16:11:05.202Z,78.27
2023-04-06T16:13:32.112Z,78.33
2023-04-06T16:16:03.320Z,78.09
2023-04-06T16:18:38.561Z,78.19
2023-04-06T16:21:05.156Z,77.76
2023-04-06T16:23:32.716Z,77.57
2023-04-06T16:26:00.111Z,77.53
2023-04-06T16:28:27.380Z,77.51
2023-04-06T16:30:54.234Z,77.36
2023-04-06T16:33:22.574Z,77.25
2023-04-06T16:35:49.323Z,77.12
2023-04-06T16:38:17.746Z,77.10
2023-04-06T16:40:44.432Z,77.06
2023-04-06T16:43:13.106Z,76.98
2023-04-06T16:45:40.625Z,76.87
2023-04-06T16:48:07.914Z,76.92
2023-04-06T16:50:35.698Z,77.25
2023-04-06T16:53:02.347Z,77.16
2023-04-06T16:55:29.120Z,76.94
2023-04-06T16:57:56.607Z,76.27
2023-04-06T17:00:23.533Z,75.44
2023-04-06T17:02:52.163Z,75.53
2023-04-06T17:05:23.918Z,76.01
2023-04-06T17:07:52.793Z,76.39
2023-04-06T17:10:24.279Z,76.92
2023-04-06T17:13:01.233Z,77.44
2023-04-06T17:15:28.900Z,77.48
2023-04-06T17:17:56.989Z,77.45
2023-04-06T17:20:26.972Z,77.53
2023-04-06T17:24:33.510Z,80.02
2023-04-06T17:27:02.841Z,78.67
2023-04-06T17:29:31.038Z,78.36
2023-04-06T17:32:01.159Z,78.07
2023-04-06T17:34:29.469Z,78.43
2023-04-06T17:36:57.515Z,78.52
2023-04-06T17:39:26.857Z,78.37
2023-04-06T17:41:54.999Z,78.40
2023-04-06T17:44:26.801Z,78.36
2023-04-06T17:46:55.673Z,77.99
2023-04-06T17:49:23.690Z,78.13
2023-04-06T17:51:51.604Z,78.56
2023-04-06T17:54:19.614Z,78.37
2023-04-06T17:56:49.440Z,78.12
2023-04-06T17:59:17.408Z,77.97
2023-04-06T18:01:45.569Z,78.30
2023-04-06T18:04:13.671Z,78.22
2023-04-06T18:06:42.334Z,78.05
2023-04-06T18:09:16.200Z,78.07
2023-04-06T18:11:44.707Z,78.03
2023-04-06T18:14:14.230Z,78.24
2023-04-06T18:16:44.890Z,78.38
2023-04-06T18:19:13.623Z,78.60
2023-04-06T18:21:41.665Z,78.78
2023-04-06T18:24:15.140Z,78.87
2023-04-06T18:26:50.952Z,79.01
2023-04-06T18:29:21.928Z,79.26
2023-04-06T18:31:52.017Z,79.47
2023-04-06T18:34:19.983Z,79.17
2023-04-06T18:36:49.502Z,79.14
2023-04-06T18:39:17.608Z,79.08
2023-04-06T18:41:46.391Z,79.18
2023-04-06T18:44:15.391Z,78.94
2023-04-06T18:46:46.573Z,78.88
2023-04-06T18:49:14.918Z,78.90
2023-04-06T18:51:43.209Z,79.00
2023-04-06T18:54:11.355Z,79.28
2023-04-06T18:56:42.069Z,79.08
2023-04-06T18:59:10.852Z,78.80
2023-04-06T19:01:43.677Z,78.99
2023-04-06T19:04:12.657Z,78.76
2023-04-06T19:06:41.095Z,78.69
2023-04-06T19:09:09.421Z,78.91
2023-04-06T19:11:38.285Z,78.70
2023-04-06T19:14:06.617Z,78.23
2023-04-06T19:16:42.723Z,78.16
2023-04-06T19:19:11.179Z,78.30
2023-04-06T19:21:39.183Z,78.40
2023-04-06T19:24:07.469Z,78.03
2023-04-06T19:26:35.646Z,78.05
2023-04-06T19:29:04.316Z,78.14
2023-04-06T19:31:32.941Z,78.40
2023-04-06T19:34:01.349Z,78.05
2023-04-06T19:36:29.793Z,77.72
2023-04-06T19:38:58.594Z,77.14
2023-04-06T19:41:27.503Z,77.46
2023-04-06T19:43:56.134Z,77.53
2023-04-06T19:46:24.097Z,77.16
2023-04-06T19:48:53.619Z,76.58
2023-04-06T19:51:21.671Z,76.79
2023-04-06T19:53:49.854Z,76.02
2023-04-06T19:56:18.286Z,75.75
2023-04-06T19:58:47.215Z,75.86
2023-04-06T20:01:16.059Z,75.57
2023-04-06T20:03:44.085Z,75.10
2023-04-06T20:06:12.940Z,74.97
2023-04-06T20:08:40.938Z,75.05
2023-04-06T20:11:09.313Z,74.94
2023-04-06T20:13:40.347Z,74.75
2023-04-06T20:16:08.878Z,74.94
2023-04-06T20:18:47.583Z,75.10
2023-04-06T20:21:16.018Z,74.72
2023-04-06T20:23:44.091Z,74.58
2023-04-06T20:26:11.991Z,74.63
2023-04-06T20:28:40.272Z,74.77
2023-04-06T20:31:13.599Z,74.46
2023-04-06T20:33:41.826Z,74.29
2023-04-06T20:36:11.306Z,74.45
2023-04-06T20:38:40.613Z,74.71
2023-04-06T20:41:10.407Z,74.65
2023-04-06T20:43:38.943Z,74.53
2023-04-06T20:46:09.273Z,74.63
2023-04-06T20:48:38.431Z,74.82
2023-04-06T20:51:06.676Z,74.74
2023-04-06T20:53:34.789Z,74.69
2023-04-06T20:56:03.336Z,74.95
2023-04-06T20:58:31.867Z,74.41
2023-04-06T21:01:00.033Z,73.72
2023-04-06T21:03:42.315Z,73.86
2023-04-06T21:06:10.528Z,73.61
2023-04-06T21:08:38.772Z,73.28
2023-04-06T21:11:12.373Z,73.75
2023-04-06T21:13:41.132Z,73.95
2023-04-06T21:16:10.418Z,73.74
2023-04-06T21:18:38.859Z,73.50
2023-04-06T21:21:07.244Z,73.61
2023-04-06T21:23:35.730Z,73.57
2023-04-06T21:26:04.024Z,73.38
2023-04-06T21:28:32.467Z,73.71
2023-04-06T21:31:00.911Z,74.18
2023-04-06T21:33:36.390Z,73.83
2023-04-06T21:36:06.270Z,74.00
2023-04-06T21:38:35.476Z,74.19
2023-04-06T21:41:03.663Z,74.05
2023-04-06T21:43:31.752Z,73.77
2023-04-06T21:45:59.807Z,73.91
2023-04-06T21:48:28.584Z,74.10
2023-04-06T21:50:56.491Z,73.15
2023-04-06T21:53:26.742Z,72.91
2023-04-06T21:55:55.283Z,72.85
2023-04-06T21:58:23.385Z,72.79
2023-04-06T22:00:51.346Z,72.76
2023-04-06T22:03:19.982Z,72.90
2023-04-06T22:05:48.177Z,73.19
2023-04-06T22:08:25.539Z,73.22
2023-04-06T22:11:01.326Z,73.10
2023-04-06T22:13:29.858Z,72.98
2023-04-06T22:15:58.121Z,73.29
2023-04-06T22:18:38.646Z,73.19
2023-04-06T22:21:08.523Z,72.79
2023-04-06T22:23:42.201Z,73.03
2023-04-06T22:26:11.342Z,72.95
2023-04-06T22:28:39.609Z,72.11
2023-04-06T22:31:07.841Z,71.56
2023-04-06T22:33:36.478Z,71.81
2023-04-06T22:36:05.994Z,72.35
2023-04-06T22:38:34.292Z,71.89
2023-04-06T22:41:02.489Z,71.67
2023-04-06T22:43:30.693Z,71.74
2023-04-06T22:45:58.898Z,72.01
2023-04-06T22:48:27.354Z,71.36
2023-04-06T22:50:56.142Z,71.44
2023-04-06T22:53:24.225Z,71.51
2023-04-06T22:55:52.985Z,71.63
2023-04-06T22:58:21.889Z,71.51
2023-04-06T23:00:53.649Z,71.49
2023-04-06T23:03:25.908Z,71.78
2023-04-06T23:05:54.433Z,71.54
2023-04-06T23:08:22.382Z,71.24
2023-04-06T23:10:51.270Z,71.17
2023-04-06T23:13:19.204Z,71.36
2023-04-06T23:15:47.215Z,71.12
2023-04-06T23:18:18.798Z,71.05
2023-04-06T23:20:47.595Z,71.15
2023-04-06T23:23:15.958Z,71.07
2023-04-06T23:25:44.096Z,70.43
2023-04-06T23:28:12.319Z,70.73
2023-04-06T23:30:42.321Z,70.82
2023-04-06T23:33:11.459Z,70.56
2023-04-06T23:35:39.458Z,70.13
2023-04-06T23:38:08.076Z,69.92
2023-04-06T23:40:39.544Z,70.06
2023-04-06T23:43:07.661Z,69.81
2023-04-06T23:45:41.058Z,69.66
2023-04-06T23:48:10.873Z,70.15
2023-04-06T23:50:39.454Z,70.77
2023-04-06T23:53:08.479Z,70.42
2023-04-06T23:55:36.733Z,70.18
2023-04-06T23:58:04.751Z,70.42
